Time;durP1;ratioP1;P1;durP2;ratioP2;P2;SDS_P1;SDS_P2;PMS_P1;PMS_P2;Temp;Humidity;BMP_temperature;BMP_pressure;BME280_temperature;BME280_humidity;BME280_pressure;Samples;Min_cycle;Max_cycle;Signal;HPM_P1;HPM_P2
2023/06/25 00:00:36;;;;;;;13.43;11.18;;;20.00;99.90;;;;;;4961355;28;20449;-56
2023/06/25 00:03:01;;;;;;;14.95;10.23;;;19.90;99.90;;;;;;4962128;28;20549;-57
2023/06/25 00:05:27;;;;;;;15.23;10.85;;;19.80;99.90;;;;;;4960422;28;20074;-57
2023/06/25 00:07:53;;;;;;;12.38;9.80;;;19.80;99.90;;;;;;4961067;28;20051;-55
2023/06/25 00:10:19;;;;;;;15.70;10.77;;;19.80;99.90;;;;;;4962029;28;20236;-56
2023/06/25 00:12:44;;;;;;;11.80;10.00;;;19.80;99.90;;;;;;4961911;28;20279;-52
2023/06/25 00:15:11;;;;;;;12.27;10.27;;;19.80;99.90;;;;;;4960948;28;20548;-52
2023/06/25 00:17:37;;;;;;;12.95;9.68;;;19.80;99.90;;;;;;4961907;28;20051;-50
2023/06/25 00:20:03;;;;;;;13.20;10.93;;;19.70;99.90;;;;;;4962100;28;20360;-56
2023/06/25 00:22:29;;;;;;;11.50;9.35;;;19.70;99.90;;;;;;4961726;28;20058;-57
2023/06/25 00:24:54;;;;;;;11.65;9.25;;;19.70;99.90;;;;;;4961106;28;20510;-59
2023/06/25 00:27:20;;;;;;;11.32;9.60;;;19.60;99.90;;;;;;4961889;28;20594;-48
2023/06/25 00:29:46;;;;;;;12.82;9.95;;;19.60;99.90;;;;;;4962030;28;20054;-55
2023/06/25 00:32:18;;;;;;;12.75;9.68;;;19.60;99.90;;;;;;4960956;28;20047;-51
2023/06/25 00:34:43;;;;;;;12.52;10.15;;;19.60;99.90;;;;;;4961705;28;20249;-52
2023/06/25 00:37:16;;;;;;;12.93;10.38;;;19.50;99.90;;;;;;4962046;28;20077;-53
2023/06/25 00:39:51;;;;;;;13.13;9.77;;;19.50;99.90;;;;;;4964505;28;20043;-57
2023/06/25 00:42:17;;;;;;;12.18;9.93;;;19.50;99.90;;;;;;4970170;28;20043;-55
2023/06/25 00:44:43;;;;;;;13.77;10.52;;;19.40;99.90;;;;;;4960329;28;20406;-58
2023/06/25 00:47:12;;;;;;;13.63;10.77;;;19.50;99.90;;;;;;4962809;28;20130;-51
2023/06/25 00:49:42;;;;;;;14.48;11.60;;;19.50;99.90;;;;;;4963773;28;20082;-59
2023/06/25 00:52:11;;;;;;;14.60;11.75;;;19.50;99.90;;;;;;4965192;28;20122;-59
2023/06/25 00:54:38;;;;;;;15.73;11.43;;;19.50;99.90;;;;;;4964713;28;20125;-55
2023/06/25 00:57:06;;;;;;;13.88;11.57;;;19.40;99.90;;;;;;4965207;28;20046;-53
2023/06/25 00:59:32;;;;;;;13.43;11.80;;;19.30;99.90;;;;;;4964992;28;20502;-53
2023/06/25 01:02:05;;;;;;;12.70;10.90;;;19.30;99.90;;;;;;4963764;28;20430;-58
2023/06/25 01:04:37;;;;;;;13.95;11.40;;;19.20;99.90;;;;;;4967676;28;20038;-59
2023/06/25 01:07:10;;;;;;;14.18;10.93;;;19.20;99.90;;;;;;4973316;28;20686;-54
2023/06/25 01:09:37;;;;;;;14.18;11.07;;;19.20;99.90;;;;;;4964925;28;20050;-53
2023/06/25 01:12:04;;;;;;;14.48;11.57;;;19.20;99.90;;;;;;4965229;28;20409;-54
2023/06/25 01:14:32;;;;;;;12.85;11.40;;;19.20;99.90;;;;;;4965287;28;20077;-52
2023/06/25 01:16:59;;;;;;;13.82;11.77;;;19.20;99.90;;;;;;4975179;28;20449;-51
2023/06/25 01:19:29;;;;;;;16.65;12.50;;;19.20;99.90;;;;;;4984232;28;20174;-52
2023/06/25 01:22:03;;;;;;;14.73;12.00;;;19.20;99.90;;;;;;4984456;28;20104;-50
2023/06/25 01:24:30;;;;;;;13.40;11.32;;;19.20;99.90;;;;;;4983746;28;20096;-58
2023/06/25 01:26:59;;;;;;;14.18;11.88;;;19.10;99.90;;;;;;4984086;28;20089;-57
2023/06/25 01:29:25;;;;;;;14.02;11.75;;;19.00;99.90;;;;;;4984417;28;20062;-58
2023/06/25 01:31:51;;;;;;;15.43;11.93;;;19.00;99.90;;;;;;4982928;28;20294;-54
2023/06/25 01:34:19;;;;;;;13.20;11.50;;;19.00;99.90;;;;;;4983769;28;20046;-51
2023/06/25 01:36:48;;;;;;;14.50;11.88;;;19.00;99.90;;;;;;4984049;28;20250;-51
2023/06/25 01:39:15;;;;;;;12.90;11.15;;;19.00;99.90;;;;;;4983558;28;20463;-53
2023/06/25 01:41:44;;;;;;;12.40;11.02;;;19.00;99.90;;;;;;4983811;28;20050;-51
2023/06/25 01:44:13;;;;;;;14.93;11.85;;;19.00;99.90;;;;;;4983822;28;20125;-53
2023/06/25 01:46:39;;;;;;;15.30;11.93;;;18.90;99.90;;;;;;4982460;28;20054;-52
2023/06/25 01:49:04;;;;;;;18.95;12.43;;;18.90;99.90;;;;;;4984194;28;20441;-53
2023/06/25 01:51:31;;;;;;;16.92;12.10;;;18.90;99.90;;;;;;4984037;28;20042;-55
2023/06/25 01:54:00;;;;;;;13.95;11.93;;;18.80;99.90;;;;;;4983766;28;20038;-49
2023/06/25 01:56:26;;;;;;;14.20;11.40;;;18.80;99.90;;;;;;4984235;28;20047;-56
2023/06/25 01:58:53;;;;;;;14.00;12.13;;;18.70;99.90;;;;;;4982410;28;20069;-58
2023/06/25 02:01:22;;;;;;;13.20;11.48;;;18.70;99.90;;;;;;4982573;28;20043;-58
2023/06/25 02:03:48;;;;;;;15.20;11.93;;;18.70;99.90;;;;;;4982967;28;20307;-59
2023/06/25 02:06:14;;;;;;;13.98;11.57;;;18.70;99.90;;;;;;4983139;28;20046;-58
2023/06/25 02:08:40;;;;;;;16.27;12.25;;;18.60;99.90;;;;;;4983272;28;20128;-55
2023/06/25 02:11:09;;;;;;;17.10;11.95;;;18.60;99.90;;;;;;4982430;28;20058;-52
2023/06/25 02:13:35;;;;;;;15.00;11.07;;;18.60;99.90;;;;;;4981892;28;20042;-52
2023/06/25 02:16:04;;;;;;;14.40;11.07;;;18.60;99.90;;;;;;4982948;28;20034;-53
2023/06/25 02:18:31;;;;;;;15.68;12.00;;;18.60;99.90;;;;;;4982730;28;20042;-51
2023/06/25 02:20:56;;;;;;;14.07;11.88;;;18.50;99.90;;;;;;4983633;28;20238;-51
2023/06/25 02:23:22;;;;;;;14.43;12.60;;;18.50;99.90;;;;;;4983408;28;20168;-56
2023/06/25 02:25:49;;;;;;;16.10;12.43;;;18.40;99.90;;;;;;4983367;28;20309;-59
2023/06/25 02:28:15;;;;;;;17.83;12.68;;;18.50;99.90;;;;;;4982423;28;20089;-59
2023/06/25 02:30:41;;;;;;;17.85;12.48;;;18.50;99.90;;;;;;4982542;28;20074;-56
2023/06/25 02:33:06;;;;;;;16.55;12.90;;;18.50;99.90;;;;;;4982813;28;20485;-59
2023/06/25 02:35:32;;;;;;;20.10;13.32;;;18.50;99.90;;;;;;4980925;28;20039;-49
2023/06/25 02:37:57;;;;;;;19.50;13.82;;;18.50;99.90;;;;;;4983218;28;20038;-54
2023/06/25 02:40:23;;;;;;;15.23;13.55;;;18.40;99.90;;;;;;4983131;28;20377;-56
2023/06/25 02:42:49;;;;;;;16.67;13.30;;;18.50;99.90;;;;;;4982705;28;20077;-57
2023/06/25 02:45:15;;;;;;;17.05;14.65;;;18.50;99.90;;;;;;4981344;28;20042;-59
2023/06/25 02:47:40;;;;;;;16.55;14.20;;;18.40;99.90;;;;;;4982593;28;20046;-57
2023/06/25 02:50:06;;;;;;;21.30;14.27;;;18.40;99.90;;;;;;4982446;28;20046;-54
2023/06/25 02:52:32;;;;;;;19.40;14.85;;;18.40;99.90;;;;;;4982185;28;20046;-52
2023/06/25 02:54:57;;;;;;;19.30;15.55;;;18.40;99.90;;;;;;4982994;28;20130;-50
2023/06/25 02:57:25;;;;;;;18.88;14.80;;;18.40;99.90;;;;;;4982748;28;20054;-52
2023/06/25 02:59:51;;;;;;;16.95;13.85;;;18.40;99.90;;;;;;4981982;28;20422;-54
2023/06/25 03:02:16;;;;;;;20.70;14.85;;;18.40;99.90;;;;;;4981642;28;20128;-59
2023/06/25 03:04:42;;;;;;;17.42;14.88;;;18.40;99.90;;;;;;4982462;28;20046;-46
2023/06/25 03:07:08;;;;;;;19.20;15.15;;;18.40;99.90;;;;;;4973663;28;20069;-56
2023/06/25 03:09:33;;;;;;;19.05;14.85;;;18.40;99.90;;;;;;4961112;28;20453;-51
2023/06/25 03:11:59;;;;;;;18.33;15.18;;;18.40;99.90;;;;;;4962598;28;20055;-53
2023/06/25 03:14:24;;;;;;;19.23;15.40;;;18.40;99.90;;;;;;4962630;28;20125;-55
2023/06/25 03:16:50;;;;;;;19.63;15.82;;;18.40;99.90;;;;;;4969090;28;20133;-45
2023/06/25 03:19:16;;;;;;;20.27;15.43;;;18.30;99.90;;;;;;4965688;28;20078;-55
2023/06/25 03:21:41;;;;;;;19.65;15.20;;;18.40;99.90;;;;;;4961443;28;20119;-58
2023/06/25 03:24:07;;;;;;;19.15;15.30;;;18.40;99.90;;;;;;4962752;28;20506;-50
2023/06/25 03:26:32;;;;;;;19.67;15.48;;;18.30;99.90;;;;;;4962296;28;20061;-46
2023/06/25 03:28:58;;;;;;;19.75;15.02;;;18.30;99.90;;;;;;4961234;28;20043;-45
2023/06/25 03:31:24;;;;;;;20.98;16.25;;;18.30;99.90;;;;;;4961716;28;20506;-58
2023/06/25 03:33:49;;;;;;;19.02;14.88;;;18.30;99.90;;;;;;4962366;28;20051;-58
2023/06/25 03:36:15;;;;;;;18.38;15.07;;;18.30;99.90;;;;;;4961843;28;20324;-59
2023/06/25 03:38:41;;;;;;;17.50;15.05;;;18.30;99.90;;;;;;4961965;28;20046;-53
2023/06/25 03:41:06;;;;;;;19.63;15.15;;;18.40;99.90;;;;;;4962364;28;20375;-51
2023/06/25 03:43:32;;;;;;;18.00;14.68;;;18.30;99.90;;;;;;4962322;28;20039;-55
2023/06/25 03:45:58;;;;;;;18.90;14.35;;;18.40;99.90;;;;;;4961734;28;20981;-59
2023/06/25 03:48:23;;;;;;;17.95;13.95;;;18.40;99.90;;;;;;4962301;28;20537;-59
2023/06/25 03:50:49;;;;;;;23.17;15.00;;;18.40;99.90;;;;;;4961917;28;20109;-54
2023/06/25 03:53:17;;;;;;;22.58;15.15;;;18.40;99.90;;;;;;4961352;28;20411;-54
2023/06/25 03:55:42;;;;;;;18.65;14.70;;;18.50;99.90;;;;;;4962243;28;20394;-51
2023/06/25 03:58:08;;;;;;;18.85;14.40;;;18.50;99.90;;;;;;4962224;28;20047;-53
2023/06/25 04:00:34;;;;;;;17.92;13.80;;;18.40;99.90;;;;;;4961250;28;20070;-52
2023/06/25 04:02:59;;;;;;;18.73;14.35;;;18.50;99.90;;;;;;4962174;28;20146;-56
2023/06/25 04:05:25;;;;;;;18.77;14.90;;;18.50;99.90;;;;;;4961604;28;20105;-53
2023/06/25 04:07:51;;;;;;;18.17;14.27;;;18.50;99.90;;;;;;4961879;28;20312;-59
2023/06/25 04:10:16;;;;;;;19.27;14.38;;;18.50;99.90;;;;;;4961396;28;20047;-54
2023/06/25 04:12:42;;;;;;;16.83;14.63;;;18.50;99.90;;;;;;4962265;28;20098;-53
2023/06/25 04:15:08;;;;;;;20.33;14.20;;;18.70;99.90;;;;;;4961065;28;20047;-51
2023/06/25 04:17:34;;;;;;;19.38;14.90;;;19.00;99.90;;;;;;4961980;28;20051;-55
2023/06/25 04:19:59;;;;;;;19.27;14.25;;;19.10;99.90;;;;;;4961879;28;20448;-59
2023/06/25 04:22:25;;;;;;;15.80;13.75;;;19.10;99.90;;;;;;4961623;28;20336;-50
2023/06/25 04:24:50;;;;;;;17.08;13.13;;;19.00;99.90;;;;;;4961606;28;20459;-58
2023/06/25 04:27:16;;;;;;;14.68;12.85;;;19.00;99.90;;;;;;4960975;28;22025;-51
2023/06/25 04:29:42;;;;;;;19.95;14.43;;;19.00;99.90;;;;;;4961037;28;20426;-51
2023/06/25 04:32:08;;;;;;;16.67;13.65;;;19.10;99.90;;;;;;4960792;28;20039;-55
2023/06/25 04:34:33;;;;;;;17.58;13.25;;;19.00;99.90;;;;;;4961785;28;20524;-58
2023/06/25 04:36:59;;;;;;;18.27;13.52;;;19.00;99.90;;;;;;4961301;28;20127;-57
2023/06/25 04:39:25;;;;;;;18.60;13.77;;;19.10;99.90;;;;;;4961367;28;20178;-54
2023/06/25 04:41:50;;;;;;;16.88;13.45;;;19.10;99.90;;;;;;4961453;28;20047;-55
2023/06/25 04:44:16;;;;;;;18.15;13.20;;;19.20;99.90;;;;;;4961031;28;20504;-50
2023/06/25 04:46:41;;;;;;;18.23;13.15;;;19.30;99.90;;;;;;4961617;28;20050;-51
2023/06/25 04:49:07;;;;;;;15.32;11.77;;;19.30;99.90;;;;;;4960533;28;20126;-58
2023/06/25 04:51:34;;;;;;;18.60;12.88;;;19.30;99.90;;;;;;4961928;28;20051;-54
2023/06/25 04:54:00;;;;;;;16.30;12.85;;;19.40;99.90;;;;;;4961225;28;20049;-48
2023/06/25 04:56:25;;;;;;;19.85;11.65;;;19.70;99.90;;;;;;4961890;28;20042;-58
2023/06/25 04:58:51;;;;;;;13.48;11.70;;;20.20;99.90;;;;;;4961488;28;20043;-54
2023/06/25 05:01:17;;;;;;;16.48;13.10;;;20.50;99.90;;;;;;4960561;28;20038;-51
2023/06/25 05:03:42;;;;;;;14.77;11.65;;;20.80;99.90;;;;;;4961643;28;20055;-52
2023/06/25 05:06:08;;;;;;;13.90;11.80;;;21.00;99.90;;;;;;4963162;28;20043;-53
2023/06/25 05:08:33;;;;;;;14.68;11.32;;;21.20;99.90;;;;;;4970487;28;20053;-57
2023/06/25 05:10:59;;;;;;;14.30;11.88;;;21.30;99.90;;;;;;4960257;28;20078;-58
2023/06/25 05:13:25;;;;;;;15.18;11.05;;;21.40;99.90;;;;;;4961149;28;20058;-53
2023/06/25 05:15:50;;;;;;;15.57;11.38;;;21.50;99.90;;;;;;4960654;28;20043;-51
2023/06/25 05:18:16;;;;;;;14.00;11.35;;;21.60;99.90;;;;;;4971483;28;20054;-51
2023/06/25 05:20:41;;;;;;;16.65;11.00;;;21.70;99.90;;;;;;4961531;28;20133;-59
2023/06/25 05:23:09;;;;;;;14.13;10.75;;;21.80;99.90;;;;;;4961472;28;20042;-55
2023/06/25 05:25:35;;;;;;;12.90;10.52;;;22.00;99.90;;;;;;4961618;28;20039;-55
2023/06/25 05:28:03;;;;;;;13.48;10.18;;;22.10;99.90;;;;;;4960347;28;20395;-58
2023/06/25 05:30:29;;;;;;;13.85;9.75;;;22.30;99.90;;;;;;4960597;28;20042;-56
2023/06/25 05:32:55;;;;;;;12.27;9.45;;;22.40;99.90;;;;;;4962112;28;20047;-54
2023/06/25 05:35:22;;;;;;;15.48;10.27;;;22.70;99.90;;;;;;4964086;28;20039;-51
2023/06/25 05:37:48;;;;;;;11.18;9.13;;;23.00;99.90;;;;;;4965021;28;20046;-52
2023/06/25 05:40:14;;;;;;;11.55;9.35;;;23.20;99.90;;;;;;4964843;28;20051;-50
2023/06/25 05:42:39;;;;;;;14.60;10.25;;;23.40;99.90;;;;;;4964133;28;20190;-59
2023/06/25 05:45:06;;;;;;;12.40;9.25;;;23.50;99.90;;;;;;4963848;28;20039;-51
2023/06/25 05:47:32;;;;;;;22.27;9.55;;;23.80;99.90;;;;;;4964248;28;20042;-59
2023/06/25 05:49:57;;;;;;;14.13;9.85;;;24.10;99.90;;;;;;4963212;28;20655;-56
2023/06/25 05:52:23;;;;;;;10.38;9.00;;;24.40;99.90;;;;;;4963614;28;20045;-54
2023/06/25 05:54:49;;;;;;;13.57;9.60;;;24.80;99.40;;;;;;4964365;28;20472;-50
2023/06/25 05:57:14;;;;;;;10.93;9.48;;;25.00;98.60;;;;;;4964276;28;20505;-55
2023/06/25 05:59:40;;;;;;;17.65;9.45;;;25.20;98.20;;;;;;4963181;28;20394;-57
2023/06/25 06:02:08;;;;;;;12.43;10.13;;;25.30;97.90;;;;;;4963946;28;20074;-59
2023/06/25 06:04:34;;;;;;;13.93;10.43;;;25.20;97.70;;;;;;4964352;28;20055;-58
2023/06/25 06:06:59;;;;;;;13.13;9.48;;;25.30;97.60;;;;;;4963953;28;20039;-47
2023/06/25 06:09:25;;;;;;;12.98;9.90;;;25.50;97.40;;;;;;4963393;28;20065;-53
2023/06/25 06:11:51;;;;;;;18.02;11.50;;;25.60;97.10;;;;;;4963809;28;20065;-51
2023/06/25 06:14:17;;;;;;;16.45;11.15;;;25.60;97.00;;;;;;4963794;28;20540;-53
2023/06/25 06:16:42;;;;;;;14.38;11.50;;;25.70;96.60;;;;;;4963701;28;20430;-56
2023/06/25 06:19:08;;;;;;;15.65;11.10;;;25.70;96.60;;;;;;4964111;28;20038;-59
2023/06/25 06:21:34;;;;;;;13.38;10.88;;;25.70;96.70;;;;;;4963815;28;20458;-56
2023/06/25 06:23:59;;;;;;;20.98;10.88;;;25.90;96.50;;;;;;4963398;28;20654;-52
2023/06/25 06:26:26;;;;;;;16.13;11.27;;;25.90;96.40;;;;;;4962919;28;20208;-53
2023/06/25 06:28:52;;;;;;;15.75;11.43;;;25.90;96.40;;;;;;4963661;28;20050;-51
2023/06/25 06:31:18;;;;;;;17.02;11.27;;;26.00;96.40;;;;;;4963162;28;20038;-53
2023/06/25 06:33:44;;;;;;;18.17;11.90;;;26.10;96.30;;;;;;4962944;28;20069;-59
2023/06/25 06:36:09;;;;;;;14.15;11.38;;;26.20;96.10;;;;;;4963550;28;20397;-56
2023/06/25 06:38:35;;;;;;;14.45;11.73;;;26.40;96.00;;;;;;4963331;28;20473;-56
2023/06/25 06:41:01;;;;;;;13.68;10.05;;;26.30;95.70;;;;;;4962220;28;20133;-56
2023/06/25 06:43:26;;;;;;;14.30;11.52;;;26.30;95.80;;;;;;4964890;28;20129;-51
2023/06/25 06:45:52;;;;;;;14.05;11.65;;;26.50;95.60;;;;;;4972269;28;20225;-53
2023/06/25 06:48:18;;;;;;;16.90;11.25;;;26.70;95.60;;;;;;4963428;28;20054;-55
2023/06/25 06:50:43;;;;;;;15.52;11.07;;;26.80;95.50;;;;;;4962842;28;20046;-48
2023/06/25 06:53:09;;;;;;;14.57;10.65;;;27.00;95.50;;;;;;4963843;28;20441;-59
2023/06/25 06:55:35;;;;;;;13.32;10.13;;;27.10;95.40;;;;;;4963005;28;20094;-55
2023/06/25 06:58:00;;;;;;;12.43;10.25;;;27.10;95.30;;;;;;4963157;28;20093;-53
2023/06/25 07:00:26;;;;;;;13.88;10.68;;;27.10;95.30;;;;;;4962042;28;20070;-53
2023/06/25 07:02:55;;;;;;;13.45;11.40;;;27.30;95.40;;;;;;4963736;28;20484;-56
2023/06/25 07:05:22;;;;;;;13.45;11.52;;;27.20;94.90;;;;;;4963075;28;20486;-51
2023/06/25 07:07:47;;;;;;;17.63;12.43;;;27.10;95.10;;;;;;4964586;28;20280;-53
2023/06/25 07:10:13;;;;;;;13.00;11.20;;;27.00;95.10;;;;;;4970428;28;20126;-58
2023/06/25 07:12:41;;;;;;;12.25;10.98;;;26.70;95.10;;;;;;4962573;28;20058;-56
2023/06/25 07:15:07;;;;;;;13.50;11.18;;;26.50;95.40;;;;;;4961881;28;20429;-58
2023/06/25 07:17:33;;;;;;;15.50;11.43;;;26.50;95.50;;;;;;4964937;28;20038;-59
2023/06/25 07:19:58;;;;;;;15.80;12.35;;;26.50;95.70;;;;;;4953896;28;20051;-54
2023/06/25 07:22:24;;;;;;;15.50;12.10;;;26.60;95.70;;;;;;4963718;28;20049;-50
2023/06/25 07:24:50;;;;;;;15.57;12.13;;;26.50;95.60;;;;;;4983194;28;20081;-56
2023/06/25 07:27:15;;;;;;;14.23;11.52;;;26.50;95.60;;;;;;4981746;28;20382;-59
2023/06/25 07:29:41;;;;;;;14.57;11.63;;;26.50;95.60;;;;;;4979487;28;20039;-57
2023/06/25 07:32:07;;;;;;;14.15;11.38;;;26.70;95.80;;;;;;4983836;28;20084;-59
2023/06/25 07:34:32;;;;;;;14.43;12.30;;;27.00;95.90;;;;;;4980113;28;20026;-56
2023/06/25 07:36:58;;;;;;;13.07;11.40;;;27.10;95.40;;;;;;4982180;28;20089;-48
2023/06/25 07:39:26;;;;;;;14.10;12.23;;;26.90;95.30;;;;;;4981471;28;20417;-51
2023/06/25 07:41:53;;;;;;;15.88;12.10;;;26.80;95.20;;;;;;4962640;28;20040;-54
2023/06/25 07:44:18;;;;;;;15.65;12.45;;;26.60;95.20;;;;;;4960242;28;20101;-50
2023/06/25 07:46:44;;;;;;;13.05;10.55;;;26.50;95.60;;;;;;4975064;28;20441;-58
2023/06/25 07:49:10;;;;;;;15.25;12.57;;;26.70;95.90;;;;;;4979993;28;20104;-57
2023/06/25 07:51:35;;;;;;;14.68;12.07;;;26.80;95.50;;;;;;4980699;28;20226;-56
2023/06/25 07:54:01;;;;;;;13.05;11.13;;;26.90;95.60;;;;;;4981633;28;20042;-51
2023/06/25 07:56:26;;;;;;;13.35;11.57;;;27.10;95.80;;;;;;4980600;28;20034;-54
2023/06/25 07:58:52;;;;;;;13.52;11.30;;;27.40;95.70;;;;;;4981198;28;20081;-55
2023/06/25 08:01:18;;;;;;;12.65;11.45;;;27.50;95.20;;;;;;4980806;28;20049;-46
2023/06/25 08:03:43;;;;;;;14.68;11.70;;;27.30;95.00;;;;;;4980401;28;20136;-57
2023/06/25 08:06:09;;;;;;;11.85;10.65;;;27.30;95.30;;;;;;4981097;28;20077;-59
2023/06/25 08:08:35;;;;;;;14.80;12.48;;;27.20;95.60;;;;;;4980789;28;20324;-54
2023/06/25 08:11:00;;;;;;;14.38;11.05;;;27.20;95.10;;;;;;4981350;28;20109;-54
2023/06/25 08:13:26;;;;;;;12.50;10.93;;;27.10;95.20;;;;;;4981847;28;20408;-50
2023/06/25 08:15:51;;;;;;;13.63;12.23;;;27.10;95.00;;;;;;4980050;28;20109;-58
2023/06/25 08:18:17;;;;;;;13.35;11.90;;;27.10;95.00;;;;;;4981913;28;20038;-58
2023/06/25 08:20:43;;;;;;;14.68;11.63;;;27.10;95.30;;;;;;4981015;28;20043;-55
2023/06/25 08:23:09;;;;;;;11.98;10.63;;;27.10;95.80;;;;;;4981305;28;20038;-54
2023/06/25 08:25:34;;;;;;;13.73;11.23;;;27.20;95.70;;;;;;4980822;28;20409;-51
2023/06/25 08:28:00;;;;;;;11.40;10.18;;;27.20;95.00;;;;;;4981166;28;20062;-53
2023/06/25 08:30:25;;;;;;;13.50;10.68;;;27.20;95.10;;;;;;4980559;28;20049;-47
2023/06/25 08:32:51;;;;;;;12.27;10.68;;;27.30;95.20;;;;;;4980548;28;20050;-59
2023/06/25 08:35:17;;;;;;;11.98;10.65;;;27.40;94.70;;;;;;4980966;28;20461;-57
2023/06/25 08:37:42;;;;;;;12.45;11.23;;;27.40;94.90;;;;;;4981282;28;20639;-57
2023/06/25 08:40:12;;;;;;;15.95;10.50;;;27.40;94.80;;;;;;4981097;28;20034;-54
2023/06/25 08:42:42;;;;;;;12.85;11.55;;;27.40;94.60;;;;;;4979185;28;20252;-52
2023/06/25 08:45:09;;;;;;;15.15;11.40;;;27.40;94.40;;;;;;4979062;28;20271;-56
2023/06/25 08:47:39;;;;;;;12.40;11.15;;;27.40;94.20;;;;;;4980854;28;20331;-51
2023/06/25 08:50:08;;;;;;;11.20;10.07;;;27.30;94.70;;;;;;4980424;28;20217;-46
2023/06/25 08:52:34;;;;;;;11.52;10.43;;;27.40;94.90;;;;;;4980735;28;20053;-55
2023/06/25 08:54:59;;;;;;;9.90;8.90;;;27.60;94.50;;;;;;4975858;28;20511;-50
2023/06/25 08:57:26;;;;;;;11.32;10.23;;;27.80;94.20;;;;;;4971352;28;20126;-53
2023/06/25 08:59:51;;;;;;;12.50;9.68;;;28.10;94.30;;;;;;4962528;28;20051;-56
2023/06/25 09:02:18;;;;;;;14.40;10.63;;;28.40;94.00;;;;;;4967931;28;20895;-59
2023/06/25 09:04:46;;;;;;;10.68;9.48;;;28.60;92.90;;;;;;4971089;28;20059;-46
2023/06/25 09:07:15;;;;;;;11.93;10.38;;;28.50;93.30;;;;;;4981256;28;20109;-60
2023/06/25 09:09:42;;;;;;;11.05;10.05;;;28.60;93.10;;;;;;4984533;28;20054;-54
2023/06/25 09:12:09;;;;;;;11.95;9.70;;;28.60;93.00;;;;;;4972486;28;20430;-48
2023/06/25 09:14:35;;;;;;;11.45;9.30;;;28.80;92.80;;;;;;4964082;28;20100;-57
2023/06/25 09:17:02;;;;;;;12.48;8.65;;;28.90;92.80;;;;;;4979952;28;20293;-59
2023/06/25 09:19:28;;;;;;;11.05;9.95;;;29.00;92.50;;;;;;4964878;28;20039;-57
2023/06/25 09:21:54;;;;;;;11.60;8.88;;;29.00;92.00;;;;;;4964312;28;20101;-50
2023/06/25 09:24:21;;;;;;;13.30;10.10;;;28.90;92.10;;;;;;4967773;28;20050;-51
2023/06/25 09:26:48;;;;;;;13.55;10.55;;;28.90;91.50;;;;;;4976249;28;20057;-48
2023/06/25 09:29:14;;;;;;;10.75;9.75;;;28.90;91.60;;;;;;4964662;28;20126;-57
2023/06/25 09:31:44;;;;;;;10.60;8.80;;;28.90;92.40;;;;;;4964662;28;20043;-59
2023/06/25 09:34:10;;;;;;;10.38;8.88;;;28.90;91.80;;;;;;4965001;28;20069;-58
2023/06/25 09:36:36;;;;;;;10.65;7.82;;;29.00;91.50;;;;;;4964872;28;20130;-59
2023/06/25 09:39:07;;;;;;;10.55;7.65;;;28.90;90.90;;;;;;4963413;28;20137;-59
2023/06/25 09:41:34;;;;;;;8.52;6.60;;;28.90;90.80;;;;;;4971540;28;20109;-58
2023/06/25 09:44:03;;;;;;;10.20;8.82;;;29.00;90.50;;;;;;4962369;28;20050;-61
2023/06/25 09:46:35;;;;;;;9.82;8.13;;;29.10;90.50;;;;;;4964277;28;20046;-65
2023/06/25 09:49:01;;;;;;;7.43;6.18;;;29.10;91.10;;;;;;4964577;28;20051;-59
2023/06/25 09:51:53;;;;;;;7.55;5.60;;;29.50;91.10;;;;;;4964517;28;20045;-53
2023/06/25 09:54:21;;;;;;;7.05;5.80;;;29.80;87.20;;;;;;4961467;28;20457;-54
2023/06/25 09:56:48;;;;;;;6.13;5.47;;;29.50;85.70;;;;;;4963335;28;20290;-60
2023/06/25 09:59:15;;;;;;;6.25;4.50;;;29.40;86.10;;;;;;4963403;28;20089;-58
2023/06/25 10:01:41;;;;;;;7.50;4.07;;;29.50;81.50;;;;;;4983774;28;20074;-57
2023/06/25 10:04:07;;;;;;;6.70;4.47;;;29.40;81.20;;;;;;4986752;28;20124;-59
2023/06/25 10:06:35;;;;;;;5.63;4.90;;;29.50;82.70;;;;;;4986021;28;20054;-59
2023/06/25 10:09:02;;;;;;;5.80;4.72;;;29.70;82.40;;;;;;4986849;28;20050;-64
2023/06/25 10:11:28;;;;;;;6.75;4.97;;;29.70;82.10;;;;;;4980428;28;20043;-63
2023/06/25 10:13:56;;;;;;;6.88;4.78;;;29.80;81.70;;;;;;4984966;28;20508;-65
2023/06/25 10:16:22;;;;;;;5.78;4.57;;;29.80;83.30;;;;;;4986427;28;20050;-56
2023/06/25 10:18:52;;;;;;;6.00;4.70;;;30.20;81.30;;;;;;4985976;28;20043;-62
2023/06/25 10:21:22;;;;;;;7.10;4.55;;;30.30;80.70;;;;;;4984390;28;20049;-58
2023/06/25 10:23:59;;;;;;;6.00;5.22;;;30.30;82.20;;;;;;4985587;28;20045;-65
2023/06/25 10:26:27;;;;;;;7.55;5.38;;;30.40;82.60;;;;;;4984630;28;20109;-55
2023/06/25 10:28:52;;;;;;;7.70;5.20;;;30.50;81.60;;;;;;4983791;28;20057;-59
2023/06/25 10:31:18;;;;;;;6.38;5.35;;;30.40;80.90;;;;;;4985040;28;20042;-57
2023/06/25 10:33:44;;;;;;;7.25;5.43;;;30.10;81.50;;;;;;4985222;28;20769;-63
2023/06/25 10:36:11;;;;;;;6.45;5.75;;;29.90;82.30;;;;;;4985462;28;20077;-65
2023/06/25 10:38:37;;;;;;;6.25;5.00;;;29.80;83.10;;;;;;4979929;28;20441;-63
2023/06/25 10:41:03;;;;;;;6.47;5.30;;;29.90;84.10;;;;;;4963844;28;20057;-63
2023/06/25 10:43:29;;;;;;;7.68;5.28;;;30.20;84.10;;;;;;4946965;28;20453;-55
2023/06/25 10:45:56;;;;;;;7.43;5.25;;;30.50;82.60;;;;;;4963459;28;20176;-56
2023/06/25 10:48:23;;;;;;;8.38;5.28;;;30.60;81.50;;;;;;4963733;28;20047;-59
2023/06/25 10:50:51;;;;;;;6.72;5.50;;;30.60;82.20;;;;;;4963526;28;20046;-60
2023/06/25 10:53:20;;;;;;;6.32;4.85;;;30.60;81.50;;;;;;4967772;28;20054;-56
2023/06/25 10:55:48;;;;;;;6.95;5.47;;;30.50;82.40;;;;;;4983192;28;20072;-56
2023/06/25 10:58:16;;;;;;;7.13;5.63;;;30.30;82.10;;;;;;4978352;28;20050;-54
2023/06/25 11:00:41;;;;;;;7.65;5.20;;;30.30;83.30;;;;;;4962608;28;20307;-61
2023/06/25 11:03:07;;;;;;;5.35;4.85;;;30.50;83.80;;;;;;4962993;28;20298;-60
2023/06/25 11:05:38;;;;;;;7.57;5.78;;;30.70;83.90;;;;;;4962910;28;20046;-59
2023/06/25 11:08:04;;;;;;;6.70;5.35;;;30.80;83.10;;;;;;4963158;28;20046;-65
2023/06/25 11:10:31;;;;;;;7.95;6.10;;;30.80;83.60;;;;;;4969446;28;20042;-63
2023/06/25 11:12:58;;;;;;;6.55;5.72;;;30.80;83.50;;;;;;4982704;28;20464;-65
2023/06/25 11:15:23;;;;;;;7.28;4.97;;;30.80;82.60;;;;;;4980993;28;20054;-60
2023/06/25 11:17:52;;;;;;;6.30;5.57;;;30.80;83.50;;;;;;4975830;28;20117;-62
2023/06/25 11:20:18;;;;;;;7.20;4.80;;;30.90;82.90;;;;;;4963519;28;20437;-57
2023/06/25 11:22:44;;;;;;;6.70;4.72;;;30.90;83.60;;;;;;4963372;28;20122;-60
2023/06/25 11:25:14;;;;;;;5.63;4.82;;;31.00;83.00;;;;;;4962664;28;20035;-52
2023/06/25 11:27:40;;;;;;;6.80;5.18;;;31.20;81.70;;;;;;4962833;28;20221;-62
2023/06/25 11:30:08;;;;;;;5.80;5.15;;;31.20;81.30;;;;;;4974776;28;20058;-65
2023/06/25 11:32:35;;;;;;;7.00;5.28;;;31.00;81.60;;;;;;4976623;28;20046;-64
2023/06/25 11:35:11;;;;;;;7.80;5.30;;;30.80;82.20;;;;;;4981734;28;20046;-63
2023/06/25 11:37:44;;;;;;;6.50;4.57;;;30.90;82.60;;;;;;4977510;28;20449;-61
2023/06/25 11:40:24;;;;;;;5.27;4.77;;;31.10;82.70;;;;;;4968728;28;20049;-64
2023/06/25 11:42:51;;;;;;;5.82;4.30;;;31.20;81.30;;;;;;4981851;28;20141;-66
2023/06/25 11:45:17;;;;;;;5.90;4.18;;;31.10;79.50;;;;;;4975170;28;20050;-65
2023/06/25 11:47:54;;;;;;;4.47;3.70;;;31.00;80.60;;;;;;4962188;28;20208;-60
2023/06/25 11:50:26;;;;;;;4.75;3.65;;;31.10;78.80;;;;;;4969029;28;20477;-62
2023/06/25 11:52:53;;;;;;;6.47;3.88;;;31.00;78.60;;;;;;4961779;28;20047;-58
2023/06/25 11:55:21;;;;;;;6.30;4.10;;;30.80;79.30;;;;;;4965209;28;20117;-59
2023/06/25 11:57:47;;;;;;;5.47;4.28;;;30.60;79.90;;;;;;4981320;28;20117;-54
2023/06/25 12:00:14;;;;;;;5.03;4.10;;;30.50;80.60;;;;;;4979616;28;20379;-55
2023/06/25 12:02:39;;;;;;;7.30;4.47;;;30.60;79.70;;;;;;4979795;28;20585;-59
2023/06/25 12:05:06;;;;;;;4.80;4.15;;;30.60;80.40;;;;;;4980093;28;20050;-58
2023/06/25 12:07:31;;;;;;;4.90;3.75;;;30.90;81.10;;;;;;4980052;28;20070;-58
2023/06/25 12:09:57;;;;;;;4.32;3.90;;;31.20;79.30;;;;;;4979796;28;20204;-60
2023/06/25 12:12:23;;;;;;;5.22;4.10;;;31.30;79.50;;;;;;4980834;28;20509;-61
2023/06/25 12:14:49;;;;;;;5.57;4.30;;;31.30;78.20;;;;;;4980596;28;20050;-62
2023/06/25 12:17:15;;;;;;;6.32;4.45;;;31.10;78.70;;;;;;4981223;28;20073;-56
2023/06/25 12:19:41;;;;;;;5.13;4.30;;;30.90;79.40;;;;;;4981315;28;20045;-61
2023/06/25 12:22:07;;;;;;;5.93;4.22;;;30.80;79.70;;;;;;4981496;28;20057;-62
2023/06/25 12:24:33;;;;;;;5.95;3.97;;;31.00;79.60;;;;;;4981164;28;20046;-50
2023/06/25 12:26:59;;;;;;;6.00;4.13;;;31.00;79.30;;;;;;4981176;28;20045;-61
2023/06/25 12:29:24;;;;;;;5.13;3.97;;;30.90;79.30;;;;;;4980975;28;20042;-62